Terminal Aerodrome Forecast
Issued by NWS

Home | Current Version | Previous Version | Text Only | Print | Product List | Glossary On
Versions: 1 2 3 4 5 6 7 8 9 10 11 12 13 14 15 16 17 18 19 20 21 22 23 24 25 26 27 28 29
000
FTPQ31 PGUM 251100
TAFPQ
TAF

PTRO 251133Z 2512/2612 08012G20KT P6SM -SHRA BKN016 BKN120 OVC290
      TEMPO 2512/2516 09014G24KT 2SM +SHRA BKN015 BKN040 OVC080
     FM251900 10012G20KT P6SM VCSH SCT016 BKN040 BKN120=

USA.gov is the U.S. government's official web portal to all federal, state and local government web resources and services.